メインページ
METAR-TAF:

METAR-TAF

空港 :

メキシコ・シティ国際空港

メキシコシティ, メキシコ

緯度: 19-26N, 経度: 099-06W, 海抜: 2238m

現時点の気象観測

当レポートは1時間3分前の08:49(UTC)に作成
無風
気温 16°C
湿度 77%
気圧 1024 hPa
視程: 16.1km
高度2000ftの雲は散在している
高度8000ftの千切れ雲あり

METAR: MMMX 200849Z 00000KT 10SM SCT020 BKN080 16/12 A3024 NOSIG RMK SLP035 57002 910 8/530 HZY

時間: 04:52 (09:52 UTC)

予報

当レポートは4時間58分前の04:54(UTC)に作成
予報は20日の 06時(UTC)から 21日の 12時(UTC)まで有効
西/北西の風 5kt
視程: 10km
高度2000ftの雲は散在している
高度30000ftの千切れ雲あり
20日の 1800時(UTC)から
南東の風 5kt
視程: 10km
高度2000ftの雲は散在している
20日の 2200時(UTC)から
南東の風 12kt
視程: 10km
高度2000ftの千切れ雲あり, 積乱雲.
高度8000ftの千切れ雲あり
20日の 23時(UTC)から 21日の 03時(UTC)まで一時的に
視程: 3.2km
激しい雷雨, 雨
21日の 0400時(UTC)から
北/北東の風 5kt
視程: 10km
高度2000ftの雲は散在している
高度25000ftの千切れ雲あり

TAF: MMMX 200454Z 2006/2112 30005KT P6SM SCT020 BKN300 TX29/2021Z TN15/2012Z FM201800 13005KT P6SM SCT020 FM202200 13012KT P6SM BKN020CB BKN080 TEMPO 2023/2103 2SM TSRA FM210400 03005KT P6SM SCT020 BKN250

4,000以上の空港の気象観測と天気予報(METAR報とTAF報)

利用可能な観測所は地図上に黄色い丸と赤い丸で示す。

丸の上にカーソルを重ねると観測所名を参照できる。

次にクリックすると気象観測と天気予報を参照できる。

マップの切り替え:黒色「×」印の緑ボタンをクリックして拡大、「-」印の緑ボタンをクリックして縮小、緑色の三角印をクリックして隣りの地図に切り替え


METAR-TAF: